| time (UTC) | temp F | wind direction | speed MPH | gust MPH | rain 1hr in | rain 24hr in | rain mn in | humidity % | barometer mb |
| 20260503043137 | 91 | 0.0 | 0.0 | 0.00 | 0.00 | 0.00 | 50 | 1005.2 | |
| 20260503042133 | 91 | 0.0 | 0.0 | 0.00 | 0.00 | 0.00 | 50 | 1005.1 | |
| 20260503041128 | 91 | 0.0 | 0.0 | 0.00 | 0.00 | 0.00 | 50 | 1005.2 | |
| 20260503040123 | 91 | 0.0 | 0.0 | 0.00 | 0.00 | 0.00 | 51 | 1005.1 | |
| 20260503035118 | 91 | 0.0 | 0.0 | 0.00 | 0.00 | 0.00 | 50 | 1005.3 | |
| 20260503034113 | 91 | 0.0 | 0.0 | 0.00 | 0.00 | 0.00 | 50 | 1005.3 | |
| 20260503033109 | 91 | 0.0 | 0.0 | 0.00 | 0.00 | 0.00 | 49 | 1005.4 | |
| 20260503032104 | 91 | 0.0 | 0.0 | 0.00 | 0.00 | 0.00 | 49 | 1005.2 | |
| 20260503031059 | 92 | 0.0 | 0.0 | 0.00 | 0.00 | 0.00 | 49 | 1005.3 | |
| 20260503030054 | 91 | 0.0 | 0.0 | 0.00 | 0.00 | 0.00 | 49 | 1005.2 | |
| 20260503025049 | 88 | 0.0 | 0.0 | 0.00 | 0.00 | 0.00 | 52 | 1005.1 | |
| 20260503024045 | 91 | 0.0 | 0.0 | 0.00 | 0.00 | 0.00 | 49 | 1005.1 | |
| 20260503023040 | 91 | 0.0 | 0.0 | 0.00 | 0.00 | 0.00 | 50 | 1005.0 | |
| 20260503022035 | 91 | 0.0 | 0.0 | 0.00 | 0.00 | 0.00 | 50 | 1004.8 | |
| 20260503021030 | 92 | 0.0 | 0.0 | 0.00 | 0.00 | 0.00 | 49 | 1004.7 | |
| 20260503020523 | 91 | 0.0 | 0.0 | 0.00 | 0.00 | 0.00 | 51 | 1004.8 | |
| 20260503015519 | 92 | 0.0 | 0.0 | 0.00 | 0.00 | 0.00 | 49 | 1004.8 | |
| 20260503014514 | 91 | 0.0 | 0.0 | 0.00 | 0.00 | 0.00 | 50 | 1004.7 | |
| 20260503013509 | 91 | 0.0 | 0.0 | 0.00 | 0.00 | 0.00 | 50 | 1004.8 | |
| 20260503010455 | 91 | 0.0 | 0.0 | 0.00 | 0.00 | 0.00 | 49 | 1004.5 | |
| 20260503005450 | 91 | 0.0 | 0.0 | 0.00 | 0.00 | 0.00 | 51 | 1004.3 | |
| 20260503004445 | 90 | 0.0 | 0.0 | 0.00 | 0.00 | 0.00 | 53 | 1004.2 | |
| 20260503003440 | 90 | 0.0 | 0.0 | 0.00 | 0.00 | 0.00 | 52 | 1004.2 | |
| 20260503002436 | 91 | 0.0 | 0.0 | 0.00 | 0.00 | 0.00 | 51 | 1004.1 | |
| 20260503001431 | 91 | 0.0 | 0.0 | 0.00 | 0.00 | 0.00 | 51 | 1004.3 | |
| 20260503000422 | 92 | 0.0 | 0.0 | 0.00 | 0.00 | 0.00 | 50 | 1004.4 | |
| 20260502235417 | 91 | 0.0 | 0.0 | 0.00 | 0.00 | 0.00 | 52 | 1004.5 | |
| 20260502234412 | 92 | 0.0 | 0.0 | 0.00 | 0.00 | 0.00 | 50 | 1004.6 | |
| 20260502233408 | 91 | 0.0 | 0.0 | 0.00 | 0.00 | 0.00 | 51 | 1004.5 | |
| 20260502232403 | 92 | 0.0 | 0.0 | 0.00 | 0.00 | 0.00 | 51 | 1004.6 | |
| 20260502231358 | 92 | 0.0 | 0.0 | 0.00 | 0.00 | 0.00 | 51 | 1004.6 | |
| 20260502230353 | 92 | 0.0 | 0.0 | 0.00 | 0.00 | 0.00 | 51 | 1004.6 | |
| 20260502225349 | 93 | 0.0 | 0.0 | 0.00 | 0.00 | 0.00 | 50 | 1004.6 | |
| 20260502224344 | 93 | 0.0 | 0.0 | 0.00 | 0.00 | 0.00 | 49 | 1004.6 | |
| 20260502223339 | 93 | 0.0 | 0.0 | 0.00 | 0.00 | 0.00 | 49 | 1004.4 | |
| 20260502222334 | 94 | 0.0 | 0.0 | 0.00 | 0.00 | 0.00 | 48 | 1004.3 | |
| 20260502221329 | 94 | 0.0 | 0.0 | 0.00 | 0.00 | 0.00 | 47 | 1004.4 | |
| 20260502220325 | 94 | 0.0 | 0.0 | 0.00 | 0.00 | 0.00 | 47 | 1004.5 | |
| 20260502215320 | 94 | 0.0 | 0.0 | 0.00 | 0.00 | 0.00 | 47 | 1004.4 | |
| 20260502214315 | 94 | 0.0 | 0.0 | 0.00 | 0.00 | 0.00 | 47 | 1004.6 | |
| 20260502213310 | 95 | 0.0 | 0.0 | 0.00 | 0.00 | 0.00 | 47 | 1004.5 | |
| 20260502212306 | 94 | 0.0 | 0.0 | 0.00 | 0.00 | 0.00 | 48 | 1004.4 | |
| 20260502211301 | 94 | 0.0 | 0.0 | 0.00 | 0.00 | 0.00 | 47 | 1004.5 | |
| 20260502210256 | 93 | 0.0 | 0.0 | 0.00 | 0.00 | 0.00 | 50 | 1004.6 | |
| 20260502205251 | 93 | 0.0 | 0.0 | 0.00 | 0.00 | 0.00 | 51 | 1004.4 | |
| 20260502204246 | 95 | 0.0 | 0.0 | 0.00 | 0.00 | 0.00 | 49 | 1004.1 | |
| 20260502203242 | 95 | 0.0 | 0.0 | 0.00 | 0.00 | 0.00 | 49 | 1004.4 | |
| 20260502202237 | 95 | 0.0 | 0.0 | 0.00 | 0.00 | 0.00 | 49 | 1003.9 | |
| 20260502201232 | 95 | 0.0 | 0.0 | 0.00 | 0.00 | 0.00 | 49 | 1003.2 | |
| 20260502200227 | 94 | 0.0 | 0.0 | 0.00 | 0.00 | 0.00 | 50 | 1002.9 | |
| 20260502195222 | 94 | 0.0 | 0.0 | 0.00 | 0.00 | 0.00 | 51 | 1002.6 | |
| 20260502194218 | 95 | 0.0 | 0.0 | 0.00 | 0.00 | 0.00 | 50 | 1002.7 | |
| 20260502193213 | 95 | 0.0 | 0.0 | 0.00 | 0.00 | 0.00 | 51 | 1002.8 | |
| 20260502192208 | 95 | 0.0 | 0.0 | 0.00 | 0.00 | 0.00 | 51 | 1002.7 | |
| 20260502191203 | 95 | 0.0 | 0.0 | 0.00 | 0.00 | 0.00 | 51 | 1002.7 | |
| 20260502190158 | 95 | 0.0 | 0.0 | 0.00 | 0.00 | 0.00 | 51 | 1002.6 | |
| 20260502185154 | 95 | 0.0 | 0.0 | 0.00 | 0.00 | 0.00 | 50 | 1002.8 | |
| 20260502184149 | 94 | 0.0 | 0.0 | 0.00 | 0.00 | 0.00 | 50 | 1002.7 | |
| 20260502183144 | 95 | 0.0 | 0.0 | 0.00 | 0.00 | 0.00 | 51 | 1003.0 | |
| 20260502182139 | 94 | 0.0 | 0.0 | 0.00 | 0.00 | 0.00 | 51 | 1003.2 | |
| 20260502181135 | 95 | 0.0 | 0.0 | 0.00 | 0.00 | 0.00 | 51 | 1003.4 | |
| 20260502180130 | 94 | 0.0 | 0.0 | 0.00 | 0.00 | 0.00 | 51 | 1003.5 | |
| 20260502164052 | 94 | 0.0 | 0.0 | 0.00 | 0.00 | 0.00 | 51 | 1004.3 | |
| 20260502163047 | 94 | 0.0 | 0.0 | 0.00 | 0.00 | 0.00 | 51 | 1004.4 | |
| 20260502162042 | 94 | 0.0 | 0.0 | 0.00 | 0.00 | 0.00 | 51 | 1004.8 | |
| 20260502161038 | 94 | 0.0 | 0.0 | 0.00 | 0.00 | 0.00 | 51 | 1004.9 | |
| 20260502152013 | 93 | 0.0 | 0.0 | 0.00 | 0.00 | 0.00 | 52 | 1004.8 | |
| 20260502151009 | 94 | 0.0 | 0.0 | 0.00 | 0.00 | 0.00 | 50 | 1004.5 | |
| 20260502123814 | 94 | 0.0 | 0.0 | 0.00 | 0.00 | 0.00 | 50 | 1002.9 | |
| 20260502122809 | 94 | 0.0 | 0.0 | 0.00 | 0.00 | 0.00 | 50 | 1002.9 | |
| 20260502121805 | 93 | 0.0 | 0.0 | 0.00 | 0.00 | 0.00 | 51 | 1002.8 | |
| 20260502113745 | 94 | 0.0 | 0.0 | 0.00 | 0.00 | 0.00 | 50 | 1001.8 | |
| 20260502112741 | 94 | 0.0 | 0.0 | 0.00 | 0.00 | 0.00 | 50 | 1001.9 | |
| 20260502111736 | 94 | 0.0 | 0.0 | 0.00 | 0.00 | 0.00 | 50 | 1001.9 | |
| 20260502110731 | 94 | 0.0 | 0.0 | 0.00 | 0.00 | 0.00 | 50 | 1001.9 | |
| 20260502105726 | 94 | 0.0 | 0.0 | 0.00 | 0.00 | 0.00 | 50 | 1001.8 | |
| 20260502104722 | 94 | 0.0 | 0.0 | 0.00 | 0.00 | 0.00 | 50 | 1001.6 | |
| 20260502103717 | 94 | 0.0 | 0.0 | 0.00 | 0.00 | 0.00 | 49 | 1001.5 | |
| 20260502102712 | 94 | 0.0 | 0.0 | 0.00 | 0.00 | 0.00 | 50 | 1001.7 | |
| 20260502101707 | 94 | 0.0 | 0.0 | 0.00 | 0.00 | 0.00 | 50 | 1001.6 | |
| 20260502100702 | 94 | 0.0 | 0.0 | 0.00 | 0.00 | 0.00 | 50 | 1001.4 | |
| 20260502070536 | 92 | 0.0 | 0.0 | 0.00 | 0.00 | 0.00 | 54 | 1001.7 | |
| 20260502065532 | 92 | 0.0 | 0.0 | 0.00 | 0.00 | 0.00 | 54 | 1001.9 | |
| 20260502064527 | 93 | 0.0 | 0.0 | 0.00 | 0.00 | 0.00 | 52 | 1001.8 | |
| 20260502063522 | 93 | 0.0 | 0.0 | 0.00 | 0.00 | 0.00 | 52 | 1002.0 | |
| 20260502062517 | 94 | 0.0 | 0.0 | 0.00 | 0.00 | 0.00 | 50 | 1001.9 | |
| 20260502061512 | 95 | 0.0 | 0.0 | 0.00 | 0.00 | 0.00 | 50 | 1002.1 | |
| 20260502060508 | 95 | 0.0 | 0.0 | 0.00 | 0.00 | 0.00 | 50 | 1002.2 | |
| 20260502055503 | 95 | 0.0 | 0.0 | 0.00 | 0.00 | 0.00 | 50 | 1002.2 | |
| 20260502052449 | 95 | 0.0 | 0.0 | 0.00 | 0.00 | 0.00 | 49 | 1002.6 | |
| 20260502051444 | 95 | 0.0 | 0.0 | 0.00 | 0.00 | 0.00 | 49 | 1002.3 | |
| 20260502050439 | 95 | 0.0 | 0.0 | 0.00 | 0.00 | 0.00 | 49 | 1002.1 | |
| 20260502045434 | 95 | 0.0 | 0.0 | 0.00 | 0.00 | 0.00 | 49 | 1001.7 | |
| 20260502044429 | 95 | 0.0 | 0.0 | 0.00 | 0.00 | 0.00 | 48 | 1001.6 | |
| 20260502043425 | 95 | 0.0 | 0.0 | 0.00 | 0.00 | 0.00 | 48 | 1002.1 |